ENGM - OSLO/GARDERMOEN - WMO ID: 01384

METAR

ENGM 181420Z 01004KT 330V040 CAVOK 11/M01 Q1016 NOSIG
ENGM 181350Z 02004KT CAVOK 11/M01 Q1015 NOSIG
ENGM 181320Z 03004KT CAVOK 11/M01 Q1015 NOSIG
ENGM 181250Z 03005KT 360V060 CAVOK 11/M00 Q1015 NOSIG
ENGM 181020Z 00000KT CAVOK 08/01 Q1014 NOSIG
ENGM 180950Z VRB01KT CAVOK 08/01 Q1014 NOSIG
ENGM 180920Z VRB02KT CAVOK 07/01 Q1014 NOSIG
ENGM 180850Z VRB01KT CAVOK 06/M01 Q1014 NOSIG
ENGM 180820Z 00000KT CAVOK 05/00 Q1014 NOSIG
ENGM 180750Z 00000KT CAVOK 04/M01 Q1013 NOSIG
ENGM 180720Z 00000KT CAVOK 03/M01 Q1013 NOSIG
ENGM 180650Z VRB01KT CAVOK 02/M01 Q1013 NOSIG
ENGM 180620Z 00000KT CAVOK 01/M02 Q1012 NOSIG
ENGM 180550Z VRB02KT CAVOK 02/M01 Q1012 NOSIG
ENGM 180520Z VRB02KT CAVOK 01/M01 Q1011 TEMPO 35010KT
ENGM 180450Z 34003KT 300V010 CAVOK 02/M00 Q1011 NOSIG
ENGM 180420Z VRB02KT CAVOK 03/M00 Q1010 TEMPO 35010KT
ENGM 180350Z VRB01KT CAVOK 03/M00 Q1010 TEMPO 35010KT
ENGM 180320Z VRB02KT CAVOK 03/M00 Q1010
ENGM 180250Z 01004KT 340V040 CAVOK 02/M00 Q1009
ENGM 180220Z 36006KT CAVOK 04/00 Q1009
ENGM 180150Z 36003KT CAVOK 04/00 Q1008
ENGM 180120Z VRB02KT CAVOK 04/01 Q1008
ENGM 180050Z VRB02KT CAVOK 04/01 Q1007
ENGM 180020Z 30003KT 260V340 CAVOK 05/02 Q1007
ENGM 172350Z 34006KT 310V020 CAVOK 05/02 Q1006
ENGM 172320Z 36007KT 320V020 CAVOK 06/03 Q1005
ENGM 172250Z 35003KT 310V050 CAVOK 06/04 Q1005
ENGM 172220Z 35007KT 320V020 9999 SCT041 BKN047 07/05 Q1004 RERA
ENGM 172150Z 36009KT 330V030 9999 -RA SCT017 SCT020 BKN039 07/05 Q1003 RERA
ENGM 172120Z 03014KT 9000 RA SCT011 BKN013 07/06 Q1002
ENGM 172050Z VRB01KT 9999 -RADZ FEW015 SCT049 BKN070 09/08 Q1001 BECMG 36010KT
ENGM 172020Z VRB02KT 9999 -RA BKN047 10/08 Q1001 NOSIG
ENGM 171950Z 21005KT 9999 -RA FEW006 BKN050 10/09 Q1001 TEMPO BKN012
ENGM 171920Z 21007KT 9999 -RA SCT009 SCT017 BKN064 10/09 Q1001 TEMPO BKN012
ENGM 171850Z 21007KT 9999 -RA FEW012 BKN022 10/09 Q1001 TEMPO BKN012
ENGM 171820Z 20007KT 9999 -RA SCT013 BKN024 10/09 Q1001 TEMPO BKN012
ENGM 171750Z 20007KT 9999 -RA SCT013 BKN020 10/09 Q1001 TEMPO RA BKN012
ENGM 171720Z 21008KT 9999 -RA FEW015 BKN018 10/09 Q1000 TEMPO RA BKN012
ENGM 171650Z 21010KT 9999 -RA FEW015 BKN020 10/09 Q1001 TEMPO RA SCT008 BKN012
ENGM 171620Z 21009KT 170V240 9000 -RA SCT014 BKN016 11/08 Q1001 TEMPO RA SCT008 BKN012
ENGM 171550Z 21010KT 9999 VCSH FEW013 BKN016 11/08 Q1001 TEMPO RA BKN012
ENGM 171520Z 21009KT 180V240 9999 SCT014 BKN016 11/09 Q1001 TEMPO BKN013
ENGM 171450Z 20010KT 9999 VCSH BKN017 11/09 Q1001 TEMPO BKN013
ENGM 171420Z 21010KT 9999 VCSH BKN017 11/09 Q1001 TEMPO BKN013
ENGM 171350Z 21010KT 180V240 9999 FEW013 BKN015 11/09 Q1002 TEMPO BKN013
ENGM 171320Z 22011KT 9999 SCT011 BKN013 10/09 Q1002 BECMG SCT013 BKN030
ENGM 171250Z 22010KT 9999 SCT008 BKN010 10/08 Q1002 BECMG SCT008 BKN030
ENGM 171220Z 21011KT 170V240 9999 BKN008 09/08 Q1003 BECMG SCT008 BKN015
ENGM 171150Z 20014KT 9999 SCT004 BKN009 09/08 Q1003 BECMG BKN015
ENGM 171120Z 21007KT 170V260 9999 OVC004 09/08 Q1003 BECMG BKN015
ENGM 171050Z 21009KT 9999 7000SW BKN003 08/07 Q1004 BECMG BKN015
ENGM 171020Z 20004KT 170V260 9999 BKN004 08/07 Q1004 TEMPO BKN008
ENGM 170950Z 19004KT 140V230 2000 BR BKN002 07/07 Q1004 TEMPO 7000 BKN008
ENGM 170920Z 20003KT 170V230 1800 1200N R19R/1800D R01R/1900U BR OVC002 07/06 Q1004 TEMPO 7000 BKN008
ENGM 170850Z 23003KT 180V270 7000 2800S R19R/P2000N R01R/1400D OVC002 07/06 Q1004 TEMPO BKN008
ENGM 170820Z 00000KT 5000 FEW001 BKN003 06/06 Q1004 TEMPO BKN008
ENGM 170750Z 00000KT 4000 BR BKN003 06/06 Q1005 TEMPO 7000 BKN008
ENGM 170720Z 36004KT 320V030 4600 BR FEW002 BKN004 06/05 Q1004 TEMPO 7000 BKN008
ENGM 170650Z 01005KT 7000 FEW003 OVC005 06/05 Q1005 TEMPO BKN003
ENGM 170620Z 02005KT 5000 -RADZ SCT002 BKN005 06/05 Q1005 TEMPO BKN003
ENGM 170550Z 02006KT 340V040 9999 7000E DZ BKN003 06/05 Q1006 TEMPO BKN008
ENGM 170520Z 02007KT 7000 DZ BKN003 06/05 Q1007 TEMPO BKN008
ENGM 170450Z 02006KT 340V050 8000 DZ BKN002 05/05 Q1007 TEMPO BKN008
ENGM 170420Z 02006KT 340V050 7000 -RADZ FEW002 BKN008 05/05 Q1008 TEMPO 2000 DZ OVC003
ENGM 170350Z 01004KT 5000 +DZ FEW004 BKN007 06/05 Q1009 TEMPO 1200 BR OVC003
ENGM 170320Z 36003KT 330V030 9000 DZ FEW004 OVC008 06/05 Q1010
ENGM 170250Z VRB02KT 6000 DZ FEW009 SCT011 OVC027 06/05 Q1010
ENGM 170220Z 04003KT 9999 OVC032 06/05 Q1011
ENGM 170150Z 04005KT 9999 -RA FEW039 OVC045 06/05 Q1011
ENGM 170120Z 04006KT 9999 -RA OVC048 06/05 Q1012
ENGM 170050Z 03008KT 9999 -RA OVC048 06/05 Q1014 RERA
ENGM 170020Z 01008KT 340V040 9999 RA NSC 06/05 Q1014
ENGM 162350Z 04006KT 9000 RA OVC048 07/05 Q1014
ENGM 162320Z 03003KT 9999 -RA NSC 07/05 Q1015
ENGM 162250Z 01004KT 320V030 9999 -RA NSC 08/05 Q1015
ENGM 162220Z 23003KT 190V300 9999 -RA FEW038 BKN090 08/04 Q1015
ENGM 162150Z 28004KT 240V330 9999 -RA FEW045 BKN070 08/04 Q1015
ENGM 162120Z 24004KT 9999 -RA FEW025 BKN080 09/04 Q1014
ENGM 162050Z VRB02KT 9999 -RA FEW026 BKN070 09/04 Q1014 TEMPO RA
ENGM 162020Z VRB02KT CAVOK 09/03 Q1014 TEMPO RA
ENGM 161950Z 00000KT CAVOK 10/03 Q1013 TEMPO RA
ENGM 161920Z VRB02KT CAVOK 11/02 Q1014 TEMPO RA
ENGM 161850Z 00000KT CAVOK 11/02 Q1014 TEMPO RA
ENGM 161820Z 00000KT CAVOK 11/02 Q1014 NOSIG
ENGM 161750Z VRB02KT CAVOK 12/01 Q1014 NOSIG
ENGM 161720Z 00000KT CAVOK 11/02 Q1014 NOSIG
ENGM 161650Z 00000KT CAVOK 12/01 Q1014 NOSIG
ENGM 161620Z VRB02KT CAVOK 12/01 Q1013 NOSIG
ENGM 161550Z VRB02KT CAVOK 12/02 Q1014 NOSIG
ENGM 161520Z 23003KT 200V260 CAVOK 13/01 Q1014 NOSIG
ENGM 161450Z 25003KT 200V300 CAVOK 13/01 Q1013 NOSIG
ENGM 161420Z 25004KT 200V280 CAVOK 13/01 Q1013 NOSIG
ENGM 161350Z 27004KT 210V350 CAVOK 14/01 Q1013 NOSIG
ENGM 161320Z 30004KT 230V010 CAVOK 14/01 Q1012 NOSIG
ENGM 161250Z 27004KT 190V340 CAVOK 14/01 Q1012 NOSIG
ENGM 161220Z 29004KT 190V350 CAVOK 15/01 Q1012 NOSIG
ENGM 161150Z 30006KT 230V350 CAVOK 14/01 Q1012 NOSIG
ENGM 161120Z 31006KT 240V020 CAVOK 14/02 Q1012 NOSIG
ENGM 161050Z 30004KT 250V020 CAVOK 14/02 Q1012 NOSIG
ENGM 161020Z 33004KT 260V030 CAVOK 14/02 Q1012 NOSIG
ENGM 160950Z VRB02KT CAVOK 14/03 Q1011 NOSIG
ENGM 160920Z VRB01KT CAVOK 13/03 Q1011 NOSIG
ENGM 160850Z VRB01KT CAVOK 13/04 Q1010 NOSIG
ENGM 160820Z VRB02KT CAVOK 12/04 Q1010 NOSIG
ENGM 160750Z VRB02KT CAVOK 11/04 Q1009 NOSIG
ENGM 160720Z 24007KT 210V270 CAVOK 11/04 Q1008 NOSIG
ENGM 160650Z 24005KT 190V280 CAVOK 10/05 Q1008 NOSIG
ENGM 160620Z 23004KT 9999 FEW001 10/07 Q1008 NOSIG
ENGM 160550Z 23006KT 9999 FEW010 10/07 Q1008 NOSIG
ENGM 160520Z 24004KT 190V310 9999 FEW010 11/08 Q1007 NOSIG
ENGM 160450Z 23009KT 9999 FEW010 11/09 Q1007
ENGM 160420Z 22009KT 9999 SCT010 11/09 Q1006 NOSIG
ENGM 160350Z 22013KT 9999 BKN010 11/09 Q1006 TEMPO SCT010
ENGM 160320Z 22012KT 9999 BKN010 12/10 Q1006
ENGM 160220Z 21013KT 9999 OVC009 12/10 Q1005
ENGM 160150Z 20012KT 9999 OVC010 13/10 Q1005
ENGM 160120Z 21012KT 9999 OVC013 13/11 Q1005
ENGM 160050Z 21009KT 180V240 9999 OVC010 13/11 Q1005
ENGM 160020Z 18011G22KT 150V230 9999 OVC010 13/11 Q1005
ENGM 152350Z 17013KT 9999 OVC010 13/11 Q1005
ENGM 152320Z 19013KT 9999 OVC012 13/11 Q1005
ENGM 152250Z 21011KT 9999 OVC011 13/11 Q1005
ENGM 152220Z 20016KT 9999 BKN010 13/11 Q1005
ENGM 152150Z 18016KT 9999 SCT009 BKN012 13/11 Q1005
ENGM 152120Z 19015KT 9999 SCT010 BKN013 13/11 Q1006
ENGM 152050Z 19011KT 8000 SCT010 BKN012 12/11 Q1007 TEMPO 4000 BR BKN006
ENGM 152020Z 20010KT 170V240 9999 OVC011 12/10 Q1007 TEMPO BKN009
ENGM 151950Z 19012KT 9999 SCT011 OVC016 13/11 Q1007 TEMPO BKN009
ENGM 151920Z 18014KT 9999 SCT010 OVC014 13/11 Q1007 TEMPO BKN009
ENGM 151850Z 19013KT 9999 FEW011 SCT013 OVC018 13/11 Q1008 TEMPO BKN012
ENGM 151820Z 18014KT 9999 SCT010 OVC012 13/11 Q1008 TEMPO BKN008
ENGM 151750Z 19012KT 9999 SCT009 OVC012 13/11 Q1008 TEMPO BKN008
ENGM 151720Z 18014KT 9999 SCT009 OVC011 12/12 Q1008 TEMPO BKN008
ENGM 151650Z 18008KT 9999 R19R/P2000N R01R/P2000N BKN008 OVC010 11/10 Q1009 TEMPO 4000 BR BKN004
ENGM 151620Z 18006KT 2300 0550N R19R/1400N R01R/2000U BCFG BR FEW001 OVC003 10/09 Q1009 TEMPO 0800 FG
ENGM 151550Z 16008KT 2000 1100SW R19R/P2000N R01R/1600U BCFG BR OVC002 10/09 Q1010 TEMPO 1200 BR
ENGM 151520Z 17008KT 4700 -RA BR BKN003 OVC007 09/09 Q1010 TEMPO 2500 -DZ BR
ENGM 151450Z 17006KT 2300 DZ BR SCT002 BKN006 OVC008 09/08 Q1011 TEMPO 4000 DZ BR
ENGM 151420Z 14004KT 110V220 4000 DZ -RA BR FEW002 BKN006 OVC008 09/08 Q1011 TEMPO 2500 -DZ BR OVC004
ENGM 151350Z 17007KT 4900 -DZRA BR FEW006 BKN008 OVC011 09/08 Q1012 TEMPO 2000 -DZ BR OVC004
ENGM 151320Z 18008KT 9999 -RA OVC013 09/05 Q1012 TEMPO 4000 -DZ BR OVC008
ENGM 151250Z 19006KT 9999 OVC018 09/05 Q1013 BECMG BKN012
ENGM 151220Z 18010KT 9999 OVC021 09/04 Q1013 BECMG BKN012
ENGM 151150Z 19009KT 9999 FEW030 BKN070 09/04 Q1013 NOSIG
ENGM 151120Z 19008KT CAVOK 09/04 Q1014 NOSIG
ENGM 151050Z 19009KT CAVOK 09/03 Q1014 NOSIG
ENGM 151020Z 21008KT CAVOK 09/03 Q1015 NOSIG
ENGM 150920Z 22008KT CAVOK 10/01 Q1015 NOSIG
ENGM 150850Z 23008KT 200V260 CAVOK 10/01 Q1015 NOSIG
ENGM 150820Z 24004KT 210V280 CAVOK 09/01 Q1015 NOSIG
ENGM 150750Z 23006KT CAVOK 09/01 Q1015 NOSIG
ENGM 150720Z 23009KT CAVOK 09/01 Q1015 NOSIG
ENGM 150650Z 23007KT 200V260 CAVOK 09/01 Q1015 NOSIG
ENGM 150620Z 23006KT 200V260 CAVOK 09/01 Q1015 NOSIG
ENGM 150550Z 24007KT 210V270 CAVOK 09/00 Q1015 NOSIG
ENGM 150520Z 00000KT CAVOK 09/00 Q1015 NOSIG
ENGM 150450Z VRB01KT CAVOK 08/00 Q1014 NOSIG
ENGM 150420Z 36003KT 270V050 CAVOK 08/00 Q1014 NOSIG
ENGM 150350Z 24007KT 220V310 CAVOK 08/00 Q1015 NOSIG
ENGM 150320Z 25008KT 210V290 CAVOK 09/M00 Q1014
ENGM 150250Z 25008KT 220V290 CAVOK 08/00 Q1014
ENGM 150220Z 24010KT 220V280 CAVOK 08/M00 Q1014
ENGM 150150Z 25006KT 220V280 CAVOK 08/00 Q1014
ENGM 150120Z 25006KT CAVOK 07/01 Q1013
ENGM 150050Z 24006KT CAVOK 06/01 Q1013
ENGM 150020Z 25007KT 220V280 CAVOK 07/01 Q1013
ENGM 142350Z 24008KT CAVOK 08/01 Q1013
ENGM 142320Z 24006KT 210V280 CAVOK 08/01 Q1013
ENGM 142250Z 24006KT CAVOK 08/01 Q1012
ENGM 142220Z 23004KT CAVOK 06/01 Q1012
ENGM 142150Z 21009KT CAVOK 06/02 Q1011
ENGM 142120Z 19007KT CAVOK 08/02 Q1011
ENGM 142050Z 21005KT CAVOK 08/02 Q1011 NOSIG
ENGM 142020Z 20006KT CAVOK 09/02 Q1011 NOSIG
ENGM 141950Z 21007KT 180V240 CAVOK 09/02 Q1011 NOSIG
ENGM 141920Z 22007KT CAVOK 09/02 Q1011 NOSIG
ENGM 141850Z 20006KT CAVOK 09/03 Q1011 NOSIG
ENGM 141820Z 15003KT CAVOK 09/04 Q1011 NOSIG
ENGM 141750Z 19005KT CAVOK 09/04 Q1011 NOSIG
ENGM 141720Z 23005KT CAVOK 11/03 Q1010 NOSIG
ENGM 141650Z 20007KT CAVOK 10/05 Q1010 NOSIG
ENGM 141620Z 21008KT CAVOK 10/05 Q1010 NOSIG
ENGM 141550Z 21009KT CAVOK 12/06 Q1010 NOSIG
ENGM 141520Z 22009KT CAVOK 13/06 Q1010 NOSIG
ENGM 141450Z 21007KT CAVOK 13/06 Q1010 NOSIG
ENGM 141420Z 20008KT CAVOK 13/06 Q1009 NOSIG
ENGM 141350Z 20010KT CAVOK 13/06 Q1009 NOSIG
ENGM 141320Z 21009KT 190V250 CAVOK 14/07 Q1009 NOSIG
ENGM 141250Z 21008KT 170V240 9999 FEW045 14/06 Q1009 NOSIG
ENGM 141220Z 20011KT CAVOK 13/07 Q1009 NOSIG
ENGM 141150Z 21010KT CAVOK 12/08 Q1009 NOSIG
ENGM 141120Z 21008KT CAVOK 12/08 Q1009 NOSIG
ENGM 141050Z 22007KT CAVOK 11/08 Q1009 NOSIG
ENGM 141020Z 21006KT CAVOK 11/08 Q1009 NOSIG
ENGM 140950Z 22006KT CAVOK 10/07 Q1009 NOSIG
ENGM 140920Z 22007KT CAVOK 11/08 Q1009 NOSIG
ENGM 140850Z 23007KT 200V260 CAVOK 10/08 Q1009 NOSIG
ENGM 140820Z 21008KT CAVOK 09/08 Q1008 NOSIG
ENGM 140750Z 21008KT 9999 VCFG NSC 09/07 Q1008 NOSIG
ENGM 140720Z VRB02KT CAVOK 09/06 Q1008 NOSIG
ENGM 140650Z 22004KT CAVOK 08/06 Q1008 NOSIG
ENGM 140620Z 00000KT 9999 VCFG NSC 08/06 Q1007 NOSIG
ENGM 140550Z 22001KT 9999 2500NW R19R/1300D R01R/P2000N VCFG NSC 07/06 Q1007 NOSIG
ENGM 140520Z VRB02KT 9999 1500NW R19R/1300U R01R/P2000N VCFG NSC 09/07 Q1007 NOSIG
ENGM 140450Z VRB02KT 9999 1400NW R19R/1700D R01R/P2000N VCFG NSC 09/08 Q1007 NOSIG
ENGM 140420Z VRB01KT CAVOK 10/09 Q1007
ENGM 140350Z 21003KT CAVOK 11/10 Q1007 NOSIG
ENGM 140320Z VRB02KT 9999 FEW009 BKN140 11/10 Q1006
ENGM 140250Z VRB04KT 9999 FEW004 OVC130 11/10 Q1006
ENGM 140120Z 20007KT 9999 FEW006 BKN012 12/11 Q1006
ENGM 140050Z 21007KT 9999 FEW006 SCT008 BKN013 12/11 Q1006
ENGM 140020Z 20009KT 9999 FEW005 BKN007 12/11 Q1005
ENGM 132150Z 16006KT 130V190 5000 -RA BR OVC002 11/10 Q1006
ENGM 132120Z 18003KT 5000 1000SW R19R/P2000N R01R/P2000N -DZ BR OVC002 10/10 Q1006
ENGM 132050Z 15006KT 5000 -DZ BR OVC002 10/10 Q1007 TEMPO 4000 -DZ BR
ENGM 132020Z 17008KT 140V200 7000 -RA SCT002 OVC004 10/09 Q1007 TEMPO 4000 -DZ BR
ENGM 131950Z 15005KT 6000 -RA SCT002 OVC004 10/09 Q1008 TEMPO 2000 BR
ENGM 131920Z 16007KT 4800 -RA BR OVC002 09/09 Q1008 TEMPO 2000 BR
ENGM 131850Z 17008KT 7000 -RA SCT002 BKN005 09/09 Q1009 TEMPO 2000 BR BKN004
ENGM 131820Z 18008KT 8000 -RA OVC004 09/08 Q1009 TEMPO 2000 BR
ENGM 131750Z 18010KT 9999 BKN004 09/08 Q1009 TEMPO 2000 BR
ENGM 131720Z 17010KT 9999 RA SCT003 BKN005 08/07 Q1009 TEMPO 2000 BR BKN004
ENGM 131650Z 17009KT 9000 RA SCT005 OVC008 08/07 Q1010 TEMPO 2000 RA BR BKN004
ENGM 131620Z 17007KT 130V190 8000 RA FEW009 BKN011 08/07 Q1011 TEMPO 4000 RA BKN008
ENGM 131550Z 18008KT 9000 RA BKN015 08/06 Q1011 TEMPO 4000 RA BKN008
ENGM 131520Z 19007KT 9000 -RA BKN017 08/06 Q1012 TEMPO 4000 RA BKN008
ENGM 131450Z 19009KT 9999 -SHRA SCT020 BKN030 08/06 Q1012 TEMPO 4000 RA BKN008
ENGM 131420Z 17010KT 9999 -RA FEW023 OVC046 08/04 Q1012 NOSIG
ENGM 131350Z 17010KT 140V200 9999 VCSH SCT026 BKN048 09/03 Q1013 NOSIG
ENGM 131320Z 18007KT 150V210 CAVOK 08/03 Q1013 NOSIG
ENGM 131250Z 18006KT CAVOK 07/03 Q1014 NOSIG
ENGM 131220Z 15004KT 110V170 CAVOK 07/02 Q1014 NOSIG
ENGM 131150Z 18006KT CAVOK 06/02 Q1014 NOSIG
ENGM 131120Z 21004KT CAVOK 06/03 Q1014 NOSIG
ENGM 131050Z 18005KT CAVOK 06/02 Q1014 NOSIG
ENGM 131020Z 21003KT 170V240 CAVOK 05/02 Q1014 NOSIG
ENGM 130950Z VRB02KT CAVOK 05/01 Q1015 NOSIG
ENGM 130920Z VRB02KT CAVOK 04/02 Q1015 NOSIG
ENGM 130850Z VRB01KT CAVOK 04/01 Q1014 NOSIG
ENGM 130820Z VRB01KT CAVOK 03/00 Q1015 NOSIG
ENGM 130750Z VRB02KT CAVOK 02/00 Q1014 NOSIG
ENGM 130720Z 00000KT CAVOK 01/M01 Q1014 NOSIG
ENGM 130650Z 00000KT CAVOK 01/M00 Q1014 NOSIG
ENGM 130620Z VRB01KT CAVOK 00/M01 Q1014 NOSIG
ENGM 130550Z VRB02KT CAVOK 01/M02 Q1014 NOSIG
ENGM 130520Z 34002KT CAVOK 01/M02 Q1014 NOSIG
ENGM 130450Z VRB02KT CAVOK 01/M02 Q1013 NOSIG
ENGM 130420Z 35003KT 310V050 CAVOK 01/M02 Q1013 NOSIG
ENGM 130350Z VRB01KT CAVOK 02/M01 Q1013 NOSIG
ENGM 130320Z 34004KT 300V060 CAVOK 02/M02 Q1013
ENGM 130250Z VRB01KT CAVOK 02/M03 Q1012
ENGM 130220Z 30005KT 260V330 CAVOK 04/M01 Q1012
ENGM 130150Z 34006KT CAVOK 04/M01 Q1011
ENGM 130120Z 31006KT 280V340 CAVOK 04/M01 Q1011
ENGM 130050Z 36004KT 310V030 CAVOK 04/M01 Q1010
ENGM 130020Z 02004KT 340V050 CAVOK 03/M02 Q1010
ENGM 122350Z VRB02KT CAVOK 05/M02 Q1010
ENGM 122250Z 28003KT 250V320 CAVOK 06/M01 Q1008
ENGM 122220Z 31005KT 280V340 CAVOK 06/M01 Q1008
ENGM 122150Z 30004KT 250V340 CAVOK 06/M01 Q1007
ENGM 122120Z 30006KT 260V340 CAVOK 06/M01 Q1006
ENGM 122050Z 31004KT 270V350 CAVOK 06/00 Q1006 NOSIG
ENGM 122020Z 30006KT 260V330 CAVOK 06/01 Q1005 NOSIG
ENGM 121950Z 32003KT 240V020 CAVOK 06/01 Q1004 NOSIG
ENGM 121920Z 33004KT 290V010 CAVOK 07/01 Q1004 NOSIG
ENGM 121850Z VRB02KT CAVOK 07/01 Q1003 NOSIG
ENGM 121820Z VRB02KT CAVOK 07/01 Q1002
ENGM 121750Z 34003KT 230V040 CAVOK 08/01 Q1001 NOSIG
ENGM 121720Z 35004KT 300V090 CAVOK 08/02 Q1001 NOSIG
ENGM 121650Z 31005KT 260V010 CAVOK 09/03 Q1000 NOSIG
ENGM 121620Z 33007KT 280V010 CAVOK 09/02 Q0999 TEMPO 33010G20KT
ENGM 121550Z 33008KT 280V010 9999 FEW048 BKN150 10/02 Q0998 TEMPO 33010G20KT
ENGM 121520Z 32008G19KT 280V360 9999 FEW048 SCT150 10/04 Q0997 TEMPO 33010KT
ENGM 121450Z 30006KT 240V010 9999 BKN046 10/04 Q0996 NOSIG
ENGM 121420Z 32007KT 270V010 9999 BKN045 10/03 Q0996 TEMPO 33018G28KT
ENGM 121350Z 33014KT 280V010 9999 SCT034 11/03 Q0995 TEMPO 33018G28KT
ENGM 121320Z 33008G20KT 290V020 9999 BKN030 09/03 Q0994 TEMPO 33018G28KT
ENGM 121250Z 32009KT 280V360 9999 SCT029 BKN044 09/03 Q0994 TEMPO 33015G25KT
ENGM 121220Z 33008KT 270V020 9999 SCT025 BKN029 09/03 Q0993 TEMPO 33015G25KT
ENGM 121150Z 34008KT 230V010 9999 VCSH FEW023 BKN026 10/04 Q0993 NOSIG
ENGM 121120Z 33008KT 280V030 9999 VCSH BKN022 09/04 Q0992 NOSIG
ENGM 121050Z 34007KT 300V050 9999 VCSH SCT028 BKN094 09/05 Q0992 NOSIG
ENGM 121020Z 32009KT 270V020 9999 SCT020 BKN030 08/04 Q0992 NOSIG
ENGM 120950Z 33008KT 300V030 9999 FEW018 SCT021 08/04 Q0991 NOSIG
ENGM 120920Z 33007KT 290V010 9999 VCSH FEW017 SCT020 BKN048 08/05 Q0991 NOSIG
ENGM 120850Z 31005KT 250V010 9999 VCSH FEW017 BKN020 07/05 Q0991 NOSIG
ENGM 120820Z 33003KT 280V020 9999 VCSH FEW007 SCT018 BKN024 07/05 Q0991 NOSIG
ENGM 120750Z 35007KT 310V020 9999 5000E -RA SCT007 BKN029 06/05 Q0990 NOSIG
ENGM 120720Z 01006KT 9999 5000W -RA FEW006 BKN029 06/05 Q0990 NOSIG
ENGM 120650Z 36004KT 300V020 9999 -RA FEW005 BKN017 06/05 Q0990 NOSIG
ENGM 120620Z 35006KT 310V020 9999 7000S -RADZ FEW004 SCT013 BKN025 06/05 Q0990 TEMPO BKN012
ENGM 120550Z 35005KT 320V020 7000 -RA SCT003 BKN011 07/06 Q0990 TEMPO 4000 -RADZ BR BKN008
ENGM 120520Z 35006KT 320V020 8000 RA FEW004 BKN011 07/06 Q0990 TEMPO 4000 -RADZ BR BKN008
ENGM 120450Z 36007KT 5000 -RA SCT004 OVC011 07/06 Q0990 TEMPO 4000 -RADZ BR BKN008
ENGM 120420Z 35008KT 5000 -RA SCT004 OVC011 07/06 Q0990 TEMPO 4000 -RADZ BR BKN008
ENGM 120350Z 36007KT 6000 -RA FEW002 SCT008 OVC011 07/06 Q0990 TEMPO 4000 -RADZ BR BKN008
ENGM 120320Z 03006KT 4500 -RA BR FEW002 SCT008 OVC011 07/06 Q0991
ENGM 120120Z 03002KT 1900 -RA BR VV002 07/06 Q0993
ENGM 120050Z 04003KT 3600 -RA BR SCT002 OVC007 07/06 Q0993
ENGM 120020Z 02003KT 3600 -RA BR FEW002 OVC007 07/06 Q0994
ENGM 112350Z 35002KT 4200 -RA BR SCT004 OVC006 06/06 Q0994
ENGM 112320Z 35002KT 4900 -RA BR FEW003 OVC005 06/06 Q0994
ENGM 112250Z 33003KT 4700 -RA BR SCT004 OVC006 06/06 Q0995
ENGM 112220Z VRB02KT 5000 -RA BR SCT003 OVC006 06/06 Q0995
ENGM 112150Z VRB02KT 5000 -RA BR SCT002 OVC005 06/06 Q0995
ENGM 112120Z 35001KT 5000 -RA BR SCT002 OVC008 06/05 Q0996
ENGM 112050Z VRB02KT 5000 -RA BR SCT002 OVC006 06/05 Q0996 TEMPO 3000 -RADZ BR OVC003
ENGM 112020Z 34002KT 5000 -RA BR SCT002 OVC007 06/05 Q0996 TEMPO 3000 -RADZ BR OVC003
ENGM 111950Z VRB02KT 4600 -RA BR OVC002 06/05 Q0997 TEMPO 2500 -RADZ BR
ENGM 111920Z VRB02KT 4800 -RA BR SCT002 OVC006 06/05 Q0997 TEMPO BKN003
ENGM 111850Z 34002KT 3500 DZ BR BKN002 OVC006 05/05 Q0997 TEMPO 2500 -RADZ BR
ENGM 111820Z VRB02KT 3500 -RA BR BKN002 OVC005 05/05 Q0997 TEMPO 2500 -RADZ BR
ENGM 111750Z 03003KT 330V120 3500 -RA BR BKN002 OVC005 05/05 Q0998 TEMPO 2500 -RADZ BR
ENGM 111720Z 04004KT 020V120 3500 -RA BR OVC003 05/04 Q0998 TEMPO 2500 RADZ BR
ENGM 111650Z 03003KT 340V130 3000 -RA BR BKN002 OVC006 05/04 Q0998 TEMPO 2500 RADZ BR
ENGM 111620Z VRB02KT 2500 RA BR BKN002 OVC005 05/04 Q0999 TEMPO 4000 -RADZ BR
ENGM 111550Z VRB02KT 4000 RA BR OVC003 05/04 Q0999 TEMPO 6000 -RA
ENGM 111520Z 00000KT 3000 RA BR OVC003 04/04 Q0999 TEMPO 6000 -RA
ENGM 111450Z 00000KT 4500 -RA BR OVC003 05/04 Q1000 TEMPO 6000
ENGM 111420Z VRB02KT 5000 -RA BR OVC003 05/04 Q1000 TEMPO 4000 RADZ BR
ENGM 111350Z 10003KT 070V140 5000 -RA BR SCT004 BKN006 OVC018 05/04 Q1001 TEMPO 4000 RADZ BR BKN004
ENGM 111320Z VRB03KT 7000 -RA BKN004 OVC009 04/03 Q1001 TEMPO 4000 RADZ BR
ENGM 111250Z 14003KT 080V210 9999 5000SW -RA SCT003 BKN006 04/03 Q1002 TEMPO 4000 RADZ BR BKN004
ENGM 111220Z 15003KT 120V290 9999 6000W -RA FEW002 BKN005 04/03 Q1002 TEMPO SCT005 BKN012
ENGM 111150Z 12003KT 070V210 9999 -RA OVC004 04/03 Q1002 TEMPO BKN008
ENGM 111120Z 18003KT 120V230 9999 -RA OVC004 04/03 Q1002 TEMPO BKN008
ENGM 111050Z VRB02KT 8000 -DZ OVC003 03/02 Q1002 TEMPO BKN005
ENGM 111020Z VRB02KT 3800 1800NE BR OVC002 03/02 Q1002 TEMPO 9000 BKN005
ENGM 110950Z 22004KT 190V250 4600 1000S R19R/P2000N R01R/1400D BCFG OVC002 03/02 Q1003 TEMPO 9000 BKN005
ENGM 110920Z 20004KT 140V220 4300 1900SE BR OVC003 03/02 Q1002 TEMPO 9000 BKN005
ENGM 110850Z VRB02KT 9999 3600SE OVC002 02/02 Q1002 TEMPO BKN005
ENGM 110820Z VRB03KT 5000 1700S BR OVC002 02/01 Q1002 TEMPO BKN005
ENGM 110750Z 00000KT 5000 1200SE R19R/P2000N R01R/1800D BR BKN002 02/01 Q1002 TEMPO BKN005
ENGM 110720Z 00000KT 4000 BR OVC002 02/01 Q1002 NOSIG
ENGM 110650Z 17004KT 120V200 8000 OVC003 02/01 Q1002 TEMPO 4000 BCFG

TAF

TAF ENGM 1812/1912 35008KT CAVOK PROB30 1903/1907 2000 BCFG BKN002
ENGM 1812/1912 35008KT CAVOK PROB30 1903/1907 2000 BCFG BKN002
ENGM 1812/1912 35008KT CAVOK PROB30 1903/1907 2000 BCFG BKN002
TAF ENGM 1806/1906 35008KT CAVOK PROB30 1903/1906 2000 BCFG BKN002
ENGM 1806/1906 35008KT CAVOK PROB30 1903/1906 2000 BCFG BKN002
TAF ENGM 1806/1906 35008KT CAVOK PROB30 1903/1906 2000 BCFG BKN002
ENGM 1806/1906 35008KT CAVOK PROB30 1903/1906 2000 BCFG BKN002
TAF ENGM 1800/1824 35008KT CAVOK
TAF ENGM 1800/1824 35008KT CAVOK
ENGM 1800/1824 35008KT CAVOK
ENGM 1800/1824 35008KT CAVOK
AMD ENGM 1720/1818 VRB03KT 9999 FEW008 BKN045 BECMG 1722/1801 36012KT
TAF AMD ENGM 172025Z 1720/1818 VRB03KT 9999 FEW008 BKN045 BECMG 1722/1801 36012KT
TAF ENGM 1718/1818 19012KT 9999 FEW008 BKN020 TEMPO 1718/1722 SHRA BKN012 FEW020CB BECMG 1722/1801 36012KT
ENGM 1718/1818 19012KT 9999 FEW008 BKN020 TEMPO 1718/1722 SHRA BKN012 FEW020CB BECMG 1722/1801 36012KT
ENGM 1718/1818 19012KT 9999 FEW008 BKN020 TEMPO 1718/1722 SHRA BKN012 FEW020CB BECMG 1722/1801 36012KT
TAF ENGM 1712/1812 19012KT 9999 BKN008 BECMG 1712/1714 FEW008 BKN020 TEMPO 1712/1716 20015G25KT BKN008 TEMPO 1716/1721 SHRA BKN012 FEW020CB BECMG 1722/1801 36012KT
ENGM 1712/1812 19012KT 9999 BKN008 BECMG 1712/1714 FEW008 BKN020 TEMPO 1712/1716 20015G25KT BKN008 TEMPO 1716/1721 SHRA BKN012 FEW020CB BECMG 1722/1801 36012KT
ENGM 1712/1812 19012KT 9999 BKN008 BECMG 1712/1714 FEW008 BKN020 TEMPO 1712/1716 20015G25KT BKN008 TEMPO 1716/1721 SHRA BKN012 FEW020CB BECMG 1722/1801 36012KT
TAF AMD ENGM 1709/1806 19005KT 9000 -DZ FEW005 BKN012 TEMPO 1709/1711 1400 DZ BR OVC003 BECMG 1711/1713 19015KT BKN020 TEMPO 1712/1718 20015G25KT TEMPO 1715/1720 SHRA BKN012 FEW020CB BECMG 1721/1723 36012KT
TAF AMD ENGM 1709/1806 19005KT 9000 -DZ FEW005 BKN012 TEMPO 1709/1711 1400 DZ BR OVC003 BECMG 1711/1713 19015KT BKN020 TEMPO 1712/1718 20015G25KT TEMPO 1715/1720 SHRA BKN012 FEW020CB BECMG 1721/1723 36012KT
TAF AMD ENGM 170911Z 1709/1806 19005KT 9000 -DZ FEW005 BKN012 TEMPO 1709/1711 1400 DZ BR OVC003 BECMG 1711/1713 19015KT BKN020 TEMPO 1712/1718 20015G25KT TEMPO 1715/1720 SHRA BKN012 FEW020CB BECMG 1721/1723 36012KT
TAF ENGM 1706/1806 VRB05KT 9999 -DZ FEW005 BKN012 TEMPO 1706/1709 2000 DZ BKN003 BECMG 1709/1711 19012KT BKN020 TEMPO 1710/1716 20015G25KT TEMPO 1715/1718 SHRA BKN012 FEW020CB BECMG 1721/1723 36012KT
ENGM 1706/1806 VRB05KT 9999 -DZ FEW005 BKN012 TEMPO 1706/1709 2000 DZ BKN003 BECMG 1709/1711 19012KT BKN020 TEMPO 1710/1716 20015G25KT TEMPO 1715/1718 SHRA BKN012 FEW020CB BECMG 1721/1723 36012KT
ENGM 1706/1806 VRB05KT 9999 -DZ FEW005 BKN012 TEMPO 1706/1709 2000 DZ BKN003 BECMG 1709/1711 19012KT BKN020 TEMPO 1710/1716 20015G25KT TEMPO 1715/1718 SHRA BKN012 FEW020CB BECMG 1721/1723 36012KT
TAF ENGM 1700/1724 VRB05KT 9999 -RA FEW040 BKN060 TEMPO 1700/1705 RA BECMG 1703/1705 3000 -RADZ BR BKN003 TEMPO 1705/1710 1200 DZRA BR BECMG 1709/1711 19012KT 9999 BKN020 TEMPO 1710/1716 20015G25KT TEMPO 1715/1718 SHRA RA BKN012 FEW020CB BECMG 1721/1723 36012KT
TAF ENGM 1700/1724 VRB05KT 9999 -RA FEW040 BKN060 TEMPO 1700/1705 RA BECMG 1703/1705 3000 -RADZ BR BKN003 TEMPO 1705/1710 1200 DZRA BR BECMG 1709/1711 19012KT 9999 BKN020 TEMPO 1710/1716 20015G25KT TEMPO 1715/1718 SHRA RA BKN012 FEW020CB BECMG 1721/1723 36012KT
ENGM 1700/1724 VRB05KT 9999 -RA FEW040 BKN060 TEMPO 1700/1705 RA BECMG 1703/1705 3000 -RADZ BR BKN003 TEMPO 1705/1710 1200 DZRA BR BECMG 1709/1711 19012KT 9999 BKN020 TEMPO 1710/1716 20015G25KT TEMPO 1715/1718 SHRA RA BKN012 FEW020CB BECMG 1721/1723 36012KT
ENGM 1700/1724 VRB05KT 9999 -RA FEW040 BKN060 TEMPO 1700/1705 RA BECMG 1703/1705 3000 -RADZ BR BKN003 TEMPO 1705/1710 1200 DZRA BR BECMG 1709/1711 19012KT 9999 BKN020 TEMPO 1710/1716 20015G25KT TEMPO 1715/1718 SHRA RA BKN012 FEW020CB BECMG 1721/1723 36012KT
TAF ENGM 1618/1718 VRB05KT 9999 -RA FEW040 BKN070 TEMPO 1620/1705 RA BECMG 1703/1705 3000 -RADZ BR BKN003 TEMPO 1705/1709 1200 DZRA BR BECMG 1709/1711 19012KT 9999 BKN020 TEMPO 1710/1715 20015G25KT TEMPO 1715/1718 SHRA RA BKN012 FEW020CB
ENGM 1618/1718 VRB05KT 9999 -RA FEW040 BKN070 TEMPO 1620/1705 RA BECMG 1703/1705 3000 -RADZ BR BKN003 TEMPO 1705/1709 1200 DZRA BR BECMG 1709/1711 19012KT 9999 BKN020 TEMPO 1710/1715 20015G25KT TEMPO 1715/1718 SHRA RA BKN012 FEW020CB
ENGM 1618/1718 VRB05KT 9999 -RA FEW040 BKN070 TEMPO 1620/1705 RA BECMG 1703/1705 3000 -RADZ BR BKN003 TEMPO 1705/1709 1200 DZRA BR BECMG 1709/1711 19012KT 9999 BKN020 TEMPO 1710/1715 20015G25KT TEMPO 1715/1718 SHRA RA BKN012 FEW020CB
TAF ENGM 1612/1712 VRB05KT CAVOK TEMPO 1621/1705 RA BECMG 1703/1705 3000 -RADZ BR BKN003 TEMPO 1705/1709 1200 DZRA BR BECMG 1709/1711 19012KT 9999 BKN020 TEMPO 1710/1712 20015G25KT
ENGM 1612/1712 VRB05KT CAVOK TEMPO 1621/1705 RA BECMG 1703/1705 3000 -RADZ BR BKN003 TEMPO 1705/1709 1200 DZRA BR BECMG 1709/1711 19012KT 9999 BKN020 TEMPO 1710/1712 20015G25KT
TAF ENGM 1612/1712 VRB05KT CAVOK TEMPO 1621/1705 RA BECMG 1703/1705 3000 -RADZ BR BKN003 TEMPO 1705/1709 1200 DZRA BR BECMG 1709/1711 19012KT 9999 BKN020 TEMPO 1710/1712 20015G25KT
ENGM 1612/1712 VRB05KT CAVOK TEMPO 1621/1705 RA BECMG 1703/1705 3000 -RADZ BR BKN003 TEMPO 1705/1709 1200 DZRA BR BECMG 1709/1711 19012KT 9999 BKN020 TEMPO 1710/1712 20015G25KT
AMD ENGM 1607/1706 VRB05KT CAVOK TEMPO 1621/1706 RA BECMG 1703/1705 3000 -RADZ BR BKN003
TAF AMD ENGM 160742Z 1607/1706 VRB05KT CAVOK TEMPO 1621/1706 RA BECMG 1703/1705 3000 -RADZ BR BKN003
TAF ENGM 1606/1706 25010KT 9999 FEW010 BECMG 1614/1616 VRB05KT TEMPO 1621/1706 RA BECMG 1703/1705 BKN012
ENGM 1606/1706 25010KT 9999 FEW010 BECMG 1614/1616 VRB05KT TEMPO 1621/1706 RA BECMG 1703/1705 BKN012
TAF ENGM 1606/1706 25010KT 9999 FEW010 BECMG 1614/1616 VRB05KT TEMPO 1621/1706 RA BECMG 1703/1705 BKN012
ENGM 1606/1706 25010KT 9999 FEW010 BECMG 1614/1616 VRB05KT TEMPO 1621/1706 RA BECMG 1703/1705 BKN012
TAF AMD ENGM 1603/1624 19015KT 9999 BKN010 BECMG 1603/1605 29007KT CAVOK
TAF AMD ENGM 1603/1624 19015KT 9999 BKN010 BECMG 1603/1605 29007KT CAVOK
AMD ENGM 1603/1624 19015KT 9999 BKN010 BECMG 1603/1605 29007KT CAVOK
TAF AMD ENGM 160313Z 1603/1624 19015KT 9999 BKN010 BECMG 1603/1605 29007KT CAVOK
TAF ENGM 1600/1624 19015KT 9000 SCT007 BKN012 TEMPO 1600/1601 3000 DZ BR OVC003 BECMG 1601/1603 29007KT CAVOK
ENGM 1600/1624 19015KT 9000 SCT007 BKN012 TEMPO 1600/1601 3000 DZ BR OVC003 BECMG 1601/1603 29007KT CAVOK
ENGM 1600/1624 19015KT 9000 SCT007 BKN012 TEMPO 1600/1601 3000 DZ BR OVC003 BECMG 1601/1603 29007KT CAVOK
TAF ENGM 1518/1618 19015KT 9000 SCT007 BKN012 TEMPO 1518/1601 3000 DZ BR OVC003 BECMG 1601/1603 29007KT CAVOK
TAF ENGM 1518/1618 19015KT 9000 SCT007 BKN012 TEMPO 1518/1601 3000 DZ BR OVC003 BECMG 1601/1603 29007KT CAVOK
ENGM 1518/1618 19015KT 9000 SCT007 BKN012 TEMPO 1518/1601 3000 DZ BR OVC003 BECMG 1601/1603 29007KT CAVOK
TAF AMD ENGM 1512/1612 18012KT 5000 FEW020 BKN030 BECMG 1513/1515 4000 BR BKN008 TEMPO 1514/1518 0800 FG OVC002 TEMPO 1518/1602 9999 BKN012 BECMG 1602/1604 24005KT CAVOK
AMD ENGM 1512/1612 18012KT 5000 FEW020 BKN030 BECMG 1513/1515 4000 BR BKN008 TEMPO 1514/1518 0800 FG OVC002 TEMPO 1518/1602 9999 BKN012 BECMG 1602/1604 24005KT CAVOK
TAF AMD ENGM 151214Z 1512/1612 18012KT 5000 FEW020 BKN030 BECMG 1513/1515 4000 BR BKN008 TEMPO 1514/1518 0800 FG OVC002 TEMPO 1518/1602 9999 BKN012 BECMG 1602/1604 24005KT CAVOK
TAF ENGM 1512/1612 VRB05KT 5000 FEW020 BKN030 BECMG 1513/1515 4000 BR BKN008 TEMPO 1514/1518 0800 FG OVC002 BECMG 1518/1520 18012KT 9999 TEMPO 1518/1602 9999 BKN012 BECMG 1602/1604 24005KT CAVOK
ENGM 1512/1612 VRB05KT 5000 FEW020 BKN030 BECMG 1513/1515 4000 BR BKN008 TEMPO 1514/1518 0800 FG OVC002 BECMG 1518/1520 18012KT 9999 TEMPO 1518/1602 9999 BKN012 BECMG 1602/1604 24005KT CAVOK
ENGM 1512/1612 VRB05KT 5000 FEW020 BKN030 BECMG 1513/1515 4000 BR BKN008 TEMPO 1514/1518 0800 FG OVC002 BECMG 1518/1520 18012KT 9999 TEMPO 1518/1602 9999 BKN012 BECMG 1602/1604 24005KT CAVOK
TAF ENGM 1506/1606 VRB05KT CAVOK BECMG 1513/1515 4000 BR BKN008 TEMPO 1514/1518 0800 FG OVC002 BECMG 1516/1518 18012KT 9999 TEMPO 1518/1524 BKN012 BECMG 1602/1604 24005KT CAVOK
TAF ENGM 1506/1606 VRB05KT CAVOK BECMG 1513/1515 4000 BR BKN008 TEMPO 1514/1518 0800 FG OVC002 BECMG 1516/1518 18012KT 9999 TEMPO 1518/1524 BKN012 BECMG 1602/1604 24005KT CAVOK
ENGM 1506/1606 VRB05KT CAVOK BECMG 1513/1515 4000 BR BKN008 TEMPO 1514/1518 0800 FG OVC002 BECMG 1516/1518 18012KT 9999 TEMPO 1518/1524 BKN012 BECMG 1602/1604 24005KT CAVOK
ENGM 1506/1606 VRB05KT CAVOK BECMG 1513/1515 4000 BR BKN008 TEMPO 1514/1518 0800 FG OVC002 BECMG 1516/1518 18012KT 9999 TEMPO 1518/1524 BKN012 BECMG 1602/1604 24005KT CAVOK
TAF ENGM 1500/1524 24005KT CAVOK BECMG 1513/1515 4000 BR BKN008 TEMPO 1514/1518 0800 FG OVC002 BECMG 1516/1518 18012KT 9999 TEMPO 1518/1524 BKN012
TAF ENGM 1500/1524 24005KT CAVOK BECMG 1513/1515 4000 BR BKN008 TEMPO 1514/1518 0800 FG OVC002 BECMG 1516/1518 18012KT 9999 TEMPO 1518/1524 BKN012
ENGM 1500/1524 24005KT CAVOK BECMG 1513/1515 4000 BR BKN008 TEMPO 1514/1518 0800 FG OVC002 BECMG 1516/1518 18012KT 9999 TEMPO 1518/1524 BKN012
ENGM 1500/1524 24005KT CAVOK BECMG 1513/1515 4000 BR BKN008 TEMPO 1514/1518 0800 FG OVC002 BECMG 1516/1518 18012KT 9999 TEMPO 1518/1524 BKN012
COR ENGM 1418/1518 24005KT CAVOK BECMG 1513/1515 4000 BR BKN008 TEMPO 1514/1518 0800 FG OVC002 BECMG 1516/1518 18015KT PROB30 TEMPO 1516/1518 20015G25KT
TAF COR ENGM 1418/1518 24005KT CAVOK BECMG 1513/1515 4000 BR BKN008 TEMPO 1514/1518 0800 FG OVC002 BECMG 1516/1518 18015KT PROB30 TEMPO 1516/1518 20015G25KT
COR ENGM 1418/1518 24005KT CAVOK BECMG 1513/1515 4000 BR BKN008 TEMPO 1514/1518 0800 FG OVC002 BECMG 1516/1518 18015KT PROB30 TEMPO 1516/1518 20015G25KT
TAF ENGM 1412/1512 25007KT CAVOK
ENGM 1412/1512 25007KT CAVOK
ENGM 1412/1512 25007KT CAVOK
TAF ENGM 1406/1506 25007KT CAVOK
ENGM 1406/1506 25007KT CAVOK
ENGM 1406/1506 25007KT CAVOK
TAF ENGM 1400/1423 VRB05KT 8000 SCT004 BKN012 TEMPO 1400/1402 BKN004 BECMG 1402/1404 FEW005 PROB30 1402/1406 0500 FG VV001
TAF ENGM 1400/1423 VRB05KT 8000 SCT004 BKN012 TEMPO 1400/1402 BKN004 BECMG 1402/1404 FEW005 PROB30 1402/1406 0500 FG VV001
TAF ENGM 132300Z 1400/1423 VRB05KT 8000 SCT004 BKN012 TEMPO 1400/1402 BKN004 BECMG 1402/1404 FEW005 PROB30 1402/1406 0500 FG VV001
TAF ENGM 1318/1418 18010KT 8000 -RADZ BKN008 TEMPO 1318/1320 0800 RADZ FG VV002 TEMPO 1320/1404 0500 FG VV001 BECMG 1402/1404 26005KT CAVOK
ENGM 1318/1418 18010KT 8000 -RADZ BKN008 TEMPO 1318/1320 0800 RADZ FG VV002 TEMPO 1320/1404 0500 FG VV001 BECMG 1402/1404 26005KT CAVOK
ENGM 1318/1418 18010KT 8000 -RADZ BKN008 TEMPO 1318/1320 0800 RADZ FG VV002 TEMPO 1320/1404 0500 FG VV001 BECMG 1402/1404 26005KT CAVOK
TAF AMD ENGM 1315/1412 18010KT 8000 -RADZ BKN015 TEMPO 1316/1320 0800 RADZ FG VV002 TEMPO 1320/1404 0500 FG VV001 BECMG 1402/1404 26005KT CAVOK
TAF AMD ENGM 1315/1412 18010KT 8000 -RADZ BKN015 TEMPO 1316/1320 0800 RADZ FG VV002 TEMPO 1320/1404 0500 FG VV001 BECMG 1402/1404 26005KT CAVOK
TAF AMD ENGM 131550Z 1315/1412 18010KT 8000 -RADZ BKN015 TEMPO 1316/1320 0800 RADZ FG VV002 TEMPO 1320/1404 0500 FG VV001 BECMG 1402/1404 26005KT CAVOK
TAF ENGM 1312/1412 18010KT CAVOK BECMG 1315/1317 -RADZ BKN006 TEMPO 1317/1320 0800 RADZ FG VV002 TEMPO 1320/1404 0500 FG VV001 BECMG 1402/1404 26005KT CAVOK
ENGM 1312/1412 18010KT CAVOK BECMG 1315/1317 -RADZ BKN006 TEMPO 1317/1320 0800 RADZ FG VV002 TEMPO 1320/1404 0500 FG VV001 BECMG 1402/1404 26005KT CAVOK
ENGM 1312/1412 18010KT CAVOK BECMG 1315/1317 -RADZ BKN006 TEMPO 1317/1320 0800 RADZ FG VV002 TEMPO 1320/1404 0500 FG VV001 BECMG 1402/1404 26005KT CAVOK
TAF ENGM 1306/1406 VRB05KT CAVOK BECMG 1310/1312 18010KT BECMG 1315/1317 4000 -RADZ BR BKN006 TEMPO 1317/1324 0500 RADZ FG VV001 BECMG 1402/1404 33010KT CAVOK
ENGM 1306/1406 VRB05KT CAVOK BECMG 1310/1312 18010KT BECMG 1315/1317 4000 -RADZ BR BKN006 TEMPO 1317/1324 0500 RADZ FG VV001 BECMG 1402/1404 33010KT CAVOK
ENGM 1306/1406 VRB05KT CAVOK BECMG 1310/1312 18010KT BECMG 1315/1317 4000 -RADZ BR BKN006 TEMPO 1317/1324 0500 RADZ FG VV001 BECMG 1402/1404 33010KT CAVOK
TAF ENGM 1300/1324 VRB05KT CAVOK BECMG 1309/1312 19010KT BECMG 1315/1318 4000 -RADZ BR BKN006 TEMPO 1317/1324 0500 RADZ FG VV001
ENGM 1300/1324 VRB05KT CAVOK BECMG 1309/1312 19010KT BECMG 1315/1318 4000 -RADZ BR BKN006 TEMPO 1317/1324 0500 RADZ FG VV001
TAF ENGM 1300/1324 VRB05KT CAVOK BECMG 1309/1312 19010KT BECMG 1315/1318 4000 -RADZ BR BKN006 TEMPO 1317/1324 0500 RADZ FG VV001
ENGM 1300/1324 VRB05KT CAVOK BECMG 1309/1312 19010KT BECMG 1315/1318 4000 -RADZ BR BKN006 TEMPO 1317/1324 0500 RADZ FG VV001
TAF AMD ENGM 1218/1318 33005KT CAVOK BECMG 1309/1311 19010KT BECMG 1316/1318 BKN008 TEMPO 1317/1318 4000 RADZ BR OVC004
TAF AMD ENGM 1218/1318 33005KT CAVOK BECMG 1309/1311 19010KT BECMG 1316/1318 BKN008 TEMPO 1317/1318 4000 RADZ BR OVC004
AMD ENGM 1218/1318 33005KT CAVOK BECMG 1309/1311 19010KT BECMG 1316/1318 BKN008 TEMPO 1317/1318 4000 RADZ BR OVC004
TAF AMD ENGM 121813Z 1218/1318 33005KT CAVOK BECMG 1309/1311 19010KT BECMG 1316/1318 BKN008 TEMPO 1317/1318 4000 RADZ BR OVC004
COR ENGM 1218/1318 33010KT CAVOK BECMG 1302/1305 VRB05KT BECMG 1309/1311 19010KT BECMG 1316/1318 BKN008 TEMPO 1317/1318 4000 RADZ BR OVC004
TAF COR ENGM 1218/1318 33010KT CAVOK BECMG 1302/1305 VRB05KT BECMG 1309/1311 19010KT BECMG 1316/1318 BKN008 TEMPO 1317/1318 4000 RADZ BR OVC004
COR ENGM 1218/1318 33010KT CAVOK BECMG 1302/1305 VRB05KT BECMG 1309/1311 19010KT BECMG 1316/1318 BKN008 TEMPO 1317/1318 4000 RADZ BR OVC004
TAF ENGM 1212/1312 33012KT CAVOK TEMPO 1212/1218 33018G28KT BECMG 1223/1302 VRB05KT BECMG 1309/1311 19010KT
TAF ENGM 1212/1312 33012KT CAVOK TEMPO 1212/1218 33018G28KT BECMG 1223/1302 VRB05KT BECMG 1309/1311 19010KT
ENGM 1212/1312 33012KT CAVOK TEMPO 1212/1218 33018G28KT BECMG 1223/1302 VRB05KT BECMG 1309/1311 19010KT
ENGM 1212/1312 33012KT CAVOK TEMPO 1212/1218 33018G28KT BECMG 1223/1302 VRB05KT BECMG 1309/1311 19010KT
TAF ENGM 1206/1306 36010KT 8000 -RA SCT006 BKN018 TEMPO 1206/1208 4000 -RADZ BR OVC002 TEMPO 1211/1216 33015G28KT BECMG 1222/1224 VRB05KT
ENGM 1206/1306 36010KT 8000 -RA SCT006 BKN018 TEMPO 1206/1208 4000 -RADZ BR OVC002 TEMPO 1211/1216 33015G28KT BECMG 1222/1224 VRB05KT
ENGM 1206/1306 36010KT 8000 -RA SCT006 BKN018 TEMPO 1206/1208 4000 -RADZ BR OVC002 TEMPO 1211/1216 33015G28KT BECMG 1222/1224 VRB05KT
AMD ENGM 1204/1224 36010KT 6000 -RA SCT005 BKN015 TEMPO 1204/1208 4000 RADZ BR OVC002 TEMPO 1211/1216 33015G28KT
TAF AMD ENGM 120407Z 1204/1224 36010KT 6000 -RA SCT005 BKN015 TEMPO 1204/1208 4000 RADZ BR OVC002 TEMPO 1211/1216 33015G28KT
TAF ENGM 1200/1224 VRB05KT 5000 -RA SCT002 BKN005 TEMPO 1200/1206 2000 RADZ BR OVC002 BECMG 1206/1208 34012KT FEW012 BKN025 PROB30 TEMPO 1206/1209 4000 SHRA BKN012 FEW020CB TEMPO 1210/1216 33015G28KT
ENGM 1200/1224 VRB05KT 5000 -RA SCT002 BKN005 TEMPO 1200/1206 2000 RADZ BR OVC002 BECMG 1206/1208 34012KT FEW012 BKN025 PROB30 TEMPO 1206/1209 4000 SHRA BKN012 FEW020CB TEMPO 1210/1216 33015G28KT
ENGM 1200/1224 VRB05KT 5000 -RA SCT002 BKN005 TEMPO 1200/1206 2000 RADZ BR OVC002 BECMG 1206/1208 34012KT FEW012 BKN025 PROB30 TEMPO 1206/1209 4000 SHRA BKN012 FEW020CB TEMPO 1210/1216 33015G28KT
TAF ENGM 1118/1218 VRB05KT 5000 -RA SCT002 BKN005 TEMPO 1118/1206 2000 RADZ BR OVC002 BECMG 1206/1208 34012KT FEW012 BKN025 PROB30 TEMPO 1206/1209 4000 SHRA BKN012 FEW020CB TEMPO 1210/1216 33015G28KT
TAF ENGM 1118/1218 VRB05KT 5000 -RA SCT002 BKN005 TEMPO 1118/1206 2000 RADZ BR OVC002 BECMG 1206/1208 34012KT FEW012 BKN025 PROB30 TEMPO 1206/1209 4000 SHRA BKN012 FEW020CB TEMPO 1210/1216 33015G28KT
ENGM 1118/1218 VRB05KT 5000 -RA SCT002 BKN005 TEMPO 1118/1206 2000 RADZ BR OVC002 BECMG 1206/1208 34012KT FEW012 BKN025 PROB30 TEMPO 1206/1209 4000 SHRA BKN012 FEW020CB TEMPO 1210/1216 33015G28KT
TAF ENGM 1112/1212 VRB05KT 9999 -RA BKN003 BECMG 1112/1115 RA FEW002 BKN012 TEMPO 1115/1206 3000 -DZRA BR OVC003 BECMG 1206/1208 34010KT NSW BKN030 PROB30 1210/1212 32015G25KT
ENGM 1112/1212 VRB05KT 9999 -RA BKN003 BECMG 1112/1115 RA FEW002 BKN012 TEMPO 1115/1206 3000 -DZRA BR OVC003 BECMG 1206/1208 34010KT NSW BKN030 PROB30 1210/1212 32015G25KT
ENGM 1112/1212 VRB05KT 9999 -RA BKN003 BECMG 1112/1115 RA FEW002 BKN012 TEMPO 1115/1206 3000 -DZRA BR OVC003 BECMG 1206/1208 34010KT NSW BKN030 PROB30 1210/1212 32015G25KT

Data hämtat från Aviation Digital Data Service (ADDS)